METAR Data
IDs: Format: Raw Decoded Include TAF

Data at: 0142 UTC 20 Jan 2022

EGVA 200056Z AUTO 34004KT 9999 CLR 01/01 A3046 RMK AO2 SLP322 T00090008 FZRANO $